createdAt,value
2022-11-05T00:01:38.421Z,99284.13
2022-11-05T00:04:32.649Z,99290.50
2022-11-05T00:07:29.078Z,99286.16
2022-11-05T00:10:05.152Z,99282.94
2022-11-05T00:12:56.495Z,99287.41
2022-11-05T00:15:48.595Z,99280.34
2022-11-05T00:18:22.251Z,99283.97
2022-11-05T00:20:55.998Z,99286.63
2022-11-05T00:23:46.853Z,99291.25
2022-11-05T00:26:20.638Z,99283.78
2022-11-05T00:29:00.994Z,99291.78
2022-11-05T00:31:35.947Z,99292.94
2022-11-05T00:34:11.848Z,99285.03
2022-11-05T00:36:45.457Z,99288.72
2022-11-05T00:39:19.004Z,99299.50
2022-11-05T00:42:15.898Z,99293.22
2022-11-05T00:45:01.117Z,99295.88
2022-11-05T00:47:53.220Z,99304.91
2022-11-05T00:50:27.052Z,99307.69
2022-11-05T00:53:01.801Z,99304.16
2022-11-05T00:55:38.669Z,99299.69
2022-11-05T00:58:14.483Z,99307.59
2022-11-05T01:00:51.306Z,99314.66
2022-11-05T01:03:28.790Z,99305.91
2022-11-05T01:06:05.663Z,99319.25
2022-11-05T01:08:43.769Z,99314.84
2022-11-05T01:11:33.494Z,99310.44
2022-11-05T01:14:10.181Z,99313.19
2022-11-05T01:16:46.628Z,99316.75
2022-11-05T01:19:26.150Z,99308.84
2022-11-05T01:21:59.632Z,99311.50
2022-11-05T01:24:33.355Z,99320.28
2022-11-05T01:27:06.871Z,99324.75
2022-11-05T01:29:40.403Z,99337.22
2022-11-05T01:32:13.969Z,99341.72
2022-11-05T01:34:49.572Z,99336.38
2022-11-05T01:37:23.081Z,99335.63
2022-11-05T01:39:57.144Z,99326.72
2022-11-05T01:42:33.067Z,99325.78
2022-11-05T01:45:14.314Z,99323.97
2022-11-05T01:47:59.225Z,99335.69
2022-11-05T01:50:44.169Z,99342.94
2022-11-05T01:53:23.362Z,99343.88
2022-11-05T01:56:00.371Z,99329.69
2022-11-05T01:58:38.646Z,99336.91
2022-11-05T02:01:13.206Z,99350.06
2022-11-05T02:03:48.246Z,99336.06
2022-11-05T02:06:23.342Z,99336.25
2022-11-05T02:09:02.193Z,99325.66
2022-11-05T02:11:36.019Z,99329.28
2022-11-05T02:14:09.099Z,99331.41
2022-11-05T02:16:48.524Z,99339.09
2022-11-05T02:20:03.847Z,99330.25
2022-11-05T02:23:04.853Z,99324.03
2022-11-05T02:26:18.502Z,99323.19
2022-11-05T02:29:23.284Z,99329.44
2022-11-05T02:32:02.469Z,99329.09
2022-11-05T02:34:47.693Z,99321.75
2022-11-05T02:37:34.408Z,99334.28
2022-11-05T02:40:16.943Z,99346.88
2022-11-05T02:43:00.612Z,99352.19
2022-11-05T02:45:47.761Z,99355.72
2022-11-05T02:48:27.406Z,99361.13
2022-11-05T02:51:07.230Z,99361.22
2022-11-05T02:53:47.487Z,99365.72
2022-11-05T02:56:25.963Z,99362.13
2022-11-05T02:58:59.514Z,99363.81
2022-11-05T03:01:33.061Z,99374.47
2022-11-05T03:04:10.968Z,99361.13
2022-11-05T03:07:00.957Z,99361.06
2022-11-05T03:10:07.330Z,99359.34
2022-11-05T03:12:48.791Z,99352.66
2022-11-05T03:15:32.473Z,99353.63
2022-11-05T03:18:13.182Z,99356.28
2022-11-05T03:20:51.999Z,99369.69
2022-11-05T03:23:30.644Z,99371.41
2022-11-05T03:26:11.499Z,99370.63
2022-11-05T03:28:50.255Z,99378.81
2022-11-05T03:31:26.025Z,99378.13
2022-11-05T03:34:01.548Z,99379.94
2022-11-05T03:36:41.427Z,99382.59
2022-11-05T03:39:19.864Z,99391.47
2022-11-05T03:41:55.449Z,99383.38
2022-11-05T03:44:34.037Z,99390.41
2022-11-05T03:47:10.859Z,99392.22
2022-11-05T03:49:52.566Z,99394.91
2022-11-05T03:52:31.441Z,99402.91
2022-11-05T03:55:05.650Z,99411.75
2022-11-05T03:57:43.314Z,99412.63
2022-11-05T04:00:17.504Z,99408.16
2022-11-05T04:02:51.510Z,99416.06
2022-11-05T04:05:25.167Z,99415.13
2022-11-05T04:08:19.954Z,99422.16
2022-11-05T04:11:10.870Z,99425.88
2022-11-05T04:13:44.357Z,99433.09
2022-11-05T04:16:35.132Z,99437.47
2022-11-05T04:19:08.588Z,99427.66
2022-11-05T04:21:59.391Z,99433.00
2022-11-05T04:24:34.311Z,99438.25
2022-11-05T04:27:11.407Z,99439.97
2022-11-05T04:30:02.076Z,99440.75
2022-11-05T04:32:35.586Z,99463.56
2022-11-05T04:35:09.188Z,99468.81
2022-11-05T04:37:42.674Z,99463.28
2022-11-05T04:40:17.780Z,99449.06
2022-11-05T04:42:51.331Z,99457.88
2022-11-05T04:45:25.753Z,99443.66
2022-11-05T04:47:59.278Z,99454.31
2022-11-05T04:50:33.644Z,99452.44
2022-11-05T04:53:07.179Z,99457.78
2022-11-05T04:55:42.168Z,99470.06
2022-11-05T04:58:15.811Z,99480.66
2022-11-05T05:00:51.359Z,99485.06
2022-11-05T05:03:24.797Z,99489.34
2022-11-05T05:06:03.688Z,99481.16
2022-11-05T05:08:37.740Z,99484.63
2022-11-05T05:11:15.234Z,99477.38
2022-11-05T05:13:49.458Z,99488.72
2022-11-05T05:16:24.464Z,99486.81
2022-11-05T05:18:57.927Z,99494.84
2022-11-05T05:21:39.220Z,99500.16
2022-11-05T05:24:14.729Z,99500.09
2022-11-05T05:26:51.238Z,99498.28
2022-11-05T05:29:24.728Z,99499.81
2022-11-05T05:31:58.179Z,99497.94
2022-11-05T05:34:31.664Z,99503.38
2022-11-05T05:37:05.100Z,99505.25
2022-11-05T05:39:38.764Z,99501.72
2022-11-05T05:42:13.595Z,99500.09
2022-11-05T05:44:47.048Z,99501.97
2022-11-05T05:47:20.704Z,99501.13
2022-11-05T05:49:54.221Z,99499.41
2022-11-05T05:52:27.747Z,99499.31
2022-11-05T05:55:01.218Z,99505.59
2022-11-05T05:57:36.454Z,99518.00
2022-11-05T06:00:11.329Z,99530.50
2022-11-05T06:02:47.973Z,99530.50
2022-11-05T06:05:21.558Z,99532.19
2022-11-05T06:07:58.416Z,99538.31
2022-11-05T06:10:32.032Z,99536.41
2022-11-05T06:13:06.997Z,99533.56
2022-11-05T06:15:40.542Z,99539.75
2022-11-05T06:18:14.188Z,99545.91
2022-11-05T06:20:47.678Z,99548.19
2022-11-05T06:23:21.247Z,99550.78
2022-11-05T06:25:54.755Z,99552.50
2022-11-05T06:28:30.755Z,99564.81
2022-11-05T06:31:04.677Z,99564.75
2022-11-05T06:33:38.316Z,99561.84
2022-11-05T06:36:16.275Z,99570.44
2022-11-05T06:38:49.802Z,99572.06
2022-11-05T06:41:23.364Z,99578.19
2022-11-05T06:43:58.293Z,99574.47
2022-11-05T06:46:31.898Z,99578.78
2022-11-05T06:49:05.432Z,99589.28
2022-11-05T06:51:38.965Z,99579.28
2022-11-05T06:54:12.601Z,99580.03
2022-11-05T06:56:46.109Z,99584.28
2022-11-05T06:59:21.058Z,99578.84
2022-11-05T07:01:54.647Z,99581.25
2022-11-05T07:04:28.192Z,99578.31
2022-11-05T07:07:02.011Z,99579.75
2022-11-05T07:09:38.617Z,99589.31
2022-11-05T07:12:12.282Z,99596.97
2022-11-05T07:14:47.239Z,99597.56
2022-11-05T07:17:20.751Z,99599.19
2022-11-05T07:19:54.190Z,99600.72
2022-11-05T07:22:27.731Z,99609.31
2022-11-05T07:25:01.162Z,99613.44
2022-11-05T07:27:39.492Z,99610.41
2022-11-05T07:30:14.668Z,99611.94
2022-11-05T07:32:48.094Z,99622.25
2022-11-05T07:35:21.729Z,99633.94
2022-11-05T07:37:56.492Z,99641.06
2022-11-05T07:40:31.078Z,99641.16
2022-11-05T07:43:04.582Z,99645.66
2022-11-05T07:45:39.474Z,99640.41
2022-11-05T07:48:12.917Z,99654.63
2022-11-05T07:50:46.493Z,99656.34
2022-11-05T07:53:20.801Z,99659.59
2022-11-05T07:55:57.286Z,99659.41
2022-11-05T07:58:30.705Z,99663.81
2022-11-05T08:01:07.358Z,99667.16
2022-11-05T08:03:40.991Z,99674.25
2022-11-05T08:06:14.605Z,99674.16
2022-11-05T08:08:48.211Z,99673.19
2022-11-05T08:11:21.723Z,99671.38
2022-11-05T08:13:55.290Z,99660.38
2022-11-05T08:16:30.243Z,99661.94
2022-11-05T08:19:04.853Z,99655.47
2022-11-05T08:21:38.352Z,99656.97
2022-11-05T08:24:12.121Z,99659.56
2022-11-05T08:26:45.281Z,99666.75
2022-11-05T08:29:18.823Z,99671.53
2022-11-05T08:31:53.725Z,99673.03
2022-11-05T08:34:27.363Z,99670.09
2022-11-05T08:37:02.166Z,99670.75
2022-11-05T08:39:35.715Z,99680.25
2022-11-05T08:42:09.188Z,99690.69
2022-11-05T08:44:42.648Z,99701.31
2022-11-05T08:47:17.589Z,99700.41
2022-11-05T08:49:51.086Z,99705.78
2022-11-05T08:52:24.558Z,99695.06
2022-11-05T08:54:57.975Z,99697.75
2022-11-05T08:57:31.403Z,99708.56
2022-11-05T09:00:06.398Z,99708.56
2022-11-05T09:02:42.146Z,99716.59
2022-11-05T09:05:15.671Z,99707.59
2022-11-05T09:07:49.082Z,99707.69
2022-11-05T09:10:22.589Z,99716.28
2022-11-05T09:12:56.191Z,99716.28
2022-11-05T09:15:29.770Z,99722.53
2022-11-05T09:18:06.138Z,99727.88
2022-11-05T09:20:40.225Z,99726.06
2022-11-05T09:23:15.319Z,99737.53
2022-11-05T09:25:49.017Z,99738.41
2022-11-05T09:28:24.217Z,99742.78
2022-11-05T09:30:57.696Z,99740.97
2022-11-05T09:33:32.936Z,99754.56
2022-11-05T09:36:07.487Z,99757.75
2022-11-05T09:38:40.942Z,99761.72
2022-11-05T09:41:19.924Z,99759.25
2022-11-05T09:43:57.735Z,99747.78
2022-11-05T09:46:40.597Z,99752.19
2022-11-05T09:49:26.569Z,99759.25
2022-11-05T09:52:01.357Z,99776.09
2022-11-05T09:54:34.856Z,99774.16
2022-11-05T09:57:14.490Z,99783.84
2022-11-05T09:59:52.590Z,99788.50
2022-11-05T10:02:30.620Z,99790.50
2022-11-05T10:05:10.604Z,99791.66
2022-11-05T10:07:46.767Z,99795.34
2022-11-05T10:10:30.285Z,99798.13
2022-11-05T10:13:09.095Z,99806.06
2022-11-05T10:15:50.466Z,99813.16
2022-11-05T10:18:30.090Z,99817.44
2022-11-05T10:21:05.848Z,99817.63
2022-11-05T10:23:42.519Z,99818.41
2022-11-05T10:26:19.819Z,99817.44
2022-11-05T10:28:53.691Z,99815.72
2022-11-05T10:31:38.677Z,99819.16
2022-11-05T10:34:13.901Z,99816.50
2022-11-05T10:36:50.816Z,99822.59
2022-11-05T10:39:27.881Z,99823.47
2022-11-05T10:42:17.484Z,99825.97
2022-11-05T10:44:58.039Z,99828.91
2022-11-05T10:47:48.114Z,99828.91
2022-11-05T10:50:25.591Z,99834.16
2022-11-05T10:53:08.703Z,99844.00
2022-11-05T10:55:45.586Z,99844.94
2022-11-05T10:58:29.118Z,99850.31
2022-11-05T11:01:11.493Z,99846.78
2022-11-05T11:03:47.499Z,99853.78
2022-11-05T11:06:25.121Z,99854.53
2022-11-05T11:09:02.286Z,99857.88
2022-11-05T11:11:37.704Z,99861.34
2022-11-05T11:14:22.753Z,99855.81
2022-11-05T11:17:18.305Z,99867.06
2022-11-05T11:19:53.709Z,99871.63
2022-11-05T11:22:28.826Z,99869.91
2022-11-05T11:25:24.744Z,99863.41
2022-11-05T11:28:04.409Z,99862.56
2022-11-05T11:30:37.905Z,99869.56
2022-11-05T11:33:13.995Z,99873.00
2022-11-05T11:35:48.385Z,99869.47
2022-11-05T11:38:24.651Z,99868.75
2022-11-05T11:41:24.071Z,99883.97
2022-11-05T11:44:00.839Z,99884.28
2022-11-05T11:46:36.657Z,99884.47
2022-11-05T11:49:32.624Z,99889.59
2022-11-05T11:52:12.633Z,99880.84
2022-11-05T11:54:46.212Z,99888.66
2022-11-05T11:57:26.226Z,99875.84
2022-11-05T12:00:09.665Z,99877.50
2022-11-05T12:03:09.332Z,99884.94
2022-11-05T12:05:48.824Z,99881.34
2022-11-05T12:08:51.069Z,99883.56
2022-11-05T12:11:37.542Z,99889.00
2022-11-05T12:14:25.740Z,99880.13
2022-11-05T12:17:13.080Z,99887.28
2022-11-05T12:20:02.579Z,99890.66
2022-11-05T12:23:07.859Z,99893.13
2022-11-05T12:25:46.926Z,99887.97
2022-11-05T12:29:16.763Z,99888.75
2022-11-05T12:32:00.693Z,99893.50
2022-11-05T12:34:57.881Z,99902.75
2022-11-05T12:37:38.797Z,99897.94
2022-11-05T12:40:30.753Z,99897.25
2022-11-05T12:43:13.386Z,99904.63
2022-11-05T12:45:52.621Z,99907.47
2022-11-05T12:48:46.311Z,99903.81
2022-11-05T12:51:31.606Z,99898.59
2022-11-05T12:54:23.062Z,99898.66
2022-11-05T12:57:00.123Z,99904.09
2022-11-05T12:59:38.950Z,99902.25
2022-11-05T13:02:22.533Z,99904.78
2022-11-05T13:05:02.294Z,99915.41
2022-11-05T13:07:40.788Z,99917.31
2022-11-05T13:10:24.787Z,99927.81
2022-11-05T13:13:05.519Z,99927.91
2022-11-05T13:15:49.176Z,99932.47
2022-11-05T13:18:31.172Z,99933.44
2022-11-05T13:21:10.177Z,99942.41
2022-11-05T13:23:48.093Z,99943.44
2022-11-05T13:26:28.519Z,99959.50
2022-11-05T13:29:08.263Z,99957.97
2022-11-05T13:31:46.926Z,99958.13
2022-11-05T13:34:33.443Z,99965.28
2022-11-05T13:37:32.406Z,99957.44
2022-11-05T13:40:11.217Z,99963.75
2022-11-05T13:43:03.797Z,99969.00
2022-11-05T13:46:05.385Z,99978.75
2022-11-05T13:49:06.010Z,99988.75
2022-11-05T13:51:50.931Z,99999.03
2022-11-05T13:55:02.595Z,100001.19
2022-11-05T13:57:59.047Z,100003.28
2022-11-05T14:00:39.964Z,100006.28
2022-11-05T14:03:19.963Z,100002.84
2022-11-05T14:06:06.329Z,100012.72
2022-11-05T14:08:47.452Z,100003.94
2022-11-05T14:11:26.968Z,100005.75
2022-11-05T14:14:04.265Z,100006.59
2022-11-05T14:16:53.337Z,100019.72
2022-11-05T14:19:34.572Z,100015.31
2022-11-05T14:22:41.843Z,100021.34
2022-11-05T14:25:57.933Z,100022.00
2022-11-05T14:28:48.269Z,100032.78
2022-11-05T14:32:07.210Z,100033.97
2022-11-05T14:34:51.899Z,100041.72
2022-11-05T14:37:28.804Z,100043.88
2022-11-05T14:40:27.754Z,100049.22
2022-11-05T14:43:04.510Z,100053.25
2022-11-05T14:45:56.245Z,100049.81
2022-11-05T14:48:38.012Z,100058.84
2022-11-05T14:51:39.343Z,100062.31
2022-11-05T14:54:23.346Z,100064.31
2022-11-05T14:56:58.500Z,100058.44
2022-11-05T14:59:52.987Z,100064.31
2022-11-05T15:03:15.195Z,100064.09
2022-11-05T15:05:52.793Z,100075.16
2022-11-05T15:08:37.959Z,100075.06
2022-11-05T15:11:24.360Z,100081.53
2022-11-05T15:14:16.351Z,100080.66
2022-11-05T15:16:53.339Z,100083.25
2022-11-05T15:19:34.267Z,100088.53
2022-11-05T15:22:19.611Z,100084.97
2022-11-05T15:24:57.001Z,100088.59
2022-11-05T15:27:48.610Z,100094.72
2022-11-05T15:30:24.584Z,100092.28
2022-11-05T15:33:10.039Z,100095.75
2022-11-05T15:35:45.428Z,100101.25
2022-11-05T15:38:29.568Z,100095.75
2022-11-05T15:41:08.472Z,100102.06
2022-11-05T15:43:47.950Z,100102.91
2022-11-05T15:46:28.317Z,100110.06
2022-11-05T15:49:06.741Z,100115.41
2022-11-05T15:51:41.688Z,100113.69
2022-11-05T15:54:30.059Z,100121.69
2022-11-05T15:57:08.568Z,100118.25
2022-11-05T15:59:42.019Z,100128.94
2022-11-05T16:02:29.110Z,100125.31
2022-11-05T16:05:06.820Z,100124.59
2022-11-05T16:07:45.245Z,100133.56
2022-11-05T16:10:21.242Z,100145.31
2022-11-05T16:12:55.064Z,100152.53
2022-11-05T16:15:32.907Z,100153.78
2022-11-05T16:18:23.815Z,100154.25
2022-11-05T16:21:09.310Z,100151.81
2022-11-05T16:23:46.396Z,100159.22
2022-11-05T16:29:34.403Z,100167.22
2022-11-05T16:32:19.032Z,100164.63
2022-11-05T16:34:55.205Z,100162.88
2022-11-05T16:37:31.244Z,100169.13
2022-11-05T16:40:14.664Z,100178.00
2022-11-05T16:42:51.447Z,100181.59
2022-11-05T16:45:26.201Z,100184.25
2022-11-05T16:47:59.685Z,100179.81
2022-11-05T16:50:33.866Z,100195.78
2022-11-05T16:53:07.359Z,100200.31
2022-11-05T16:55:44.119Z,100200.31
2022-11-05T16:58:22.469Z,100195.91
2022-11-05T17:01:00.708Z,100204.72
2022-11-05T17:03:34.254Z,100202.03
2022-11-05T17:06:08.642Z,100206.38
2022-11-05T17:08:44.475Z,100204.56
2022-11-05T17:11:22.118Z,100213.53
2022-11-05T17:13:55.614Z,100214.56
2022-11-05T17:16:29.601Z,100221.69
2022-11-05T17:19:03.245Z,100227.03
2022-11-05T17:21:36.864Z,100232.31
2022-11-05T17:24:10.834Z,100235.84
2022-11-05T17:26:45.790Z,100241.13
2022-11-05T17:29:19.310Z,100250.00
2022-11-05T17:31:52.865Z,100260.63
2022-11-05T17:34:26.374Z,100252.53
2022-11-05T17:36:59.929Z,100256.06
2022-11-05T17:39:33.650Z,100258.72
2022-11-05T17:42:08.311Z,100262.56
2022-11-05T17:44:41.993Z,100258.66
2022-11-05T17:47:17.761Z,100264.06
2022-11-05T17:49:51.294Z,100259.78
2022-11-05T17:52:24.825Z,100264.22
2022-11-05T17:54:58.502Z,100266.03
2022-11-05T17:57:33.538Z,100268.72
2022-11-05T18:00:08.766Z,100271.38
2022-11-05T18:02:44.345Z,100272.16
2022-11-05T18:05:18.553Z,100273.06
2022-11-05T18:07:52.623Z,100275.66
2022-11-05T18:10:26.406Z,100273.84
2022-11-05T18:13:00.987Z,100275.84
2022-11-05T18:15:35.683Z,100278.28
2022-11-05T18:18:10.253Z,100277.16
2022-11-05T18:20:44.460Z,100276.38
2022-11-05T18:23:18.098Z,100279.97
2022-11-05T18:25:51.458Z,100270.56
2022-11-05T18:28:26.721Z,100274.69
2022-11-05T18:31:00.353Z,100269.50
2022-11-05T18:33:33.987Z,100279.34
2022-11-05T18:36:08.163Z,100279.41
2022-11-05T18:38:41.669Z,100280.41
2022-11-05T18:41:22.016Z,100283.97
2022-11-05T18:44:00.881Z,100277.81
2022-11-05T18:49:42.439Z,100276.09
2022-11-05T18:52:18.373Z,100287.78
2022-11-05T18:54:55.061Z,100294.03
2022-11-05T18:57:40.552Z,100293.13
2022-11-05T19:00:20.399Z,100291.44
2022-11-05T19:02:54.390Z,100292.28
2022-11-05T19:05:29.723Z,100299.53
2022-11-05T19:08:09.667Z,100295.09
2022-11-05T19:10:45.285Z,100297.78
2022-11-05T19:13:18.904Z,100293.34
2022-11-05T19:15:55.857Z,100295.09
2022-11-05T19:18:31.957Z,100295.19
2022-11-05T19:21:11.991Z,100298.78
2022-11-05T19:23:45.892Z,100297.06
2022-11-05T19:26:27.188Z,100300.66
2022-11-05T19:29:03.851Z,100306.09
2022-11-05T19:31:49.362Z,100299.94
2022-11-05T19:34:22.953Z,100311.63
2022-11-05T19:37:05.370Z,100312.59
2022-11-05T19:39:44.272Z,100311.78
2022-11-05T19:42:18.859Z,100313.66
2022-11-05T19:44:52.380Z,100323.50
2022-11-05T19:47:29.535Z,100320.00
2022-11-05T19:50:05.308Z,100330.78
2022-11-05T19:52:41.712Z,100339.81
2022-11-05T19:55:16.706Z,100340.66
2022-11-05T19:57:52.733Z,100346.00
2022-11-05T20:00:26.313Z,100346.88
2022-11-05T20:03:07.079Z,100355.91
2022-11-05T20:05:42.348Z,100360.53
2022-11-05T20:08:17.293Z,100359.72
2022-11-05T20:10:57.397Z,100360.69
2022-11-05T20:13:33.194Z,100364.47
2022-11-05T20:16:20.742Z,100369.75
2022-11-05T20:19:05.280Z,100372.63
2022-11-05T20:21:44.583Z,100382.47
2022-11-05T20:24:24.694Z,100388.72
2022-11-05T20:26:59.269Z,100378.03
2022-11-05T20:29:37.168Z,100388.72
2022-11-05T20:32:14.351Z,100393.28
2022-11-05T20:34:49.383Z,100399.47
2022-11-05T20:37:26.182Z,100393.28
2022-11-05T20:40:02.062Z,100395.94
2022-11-05T20:42:37.374Z,100393.34
2022-11-05T20:45:11.979Z,100397.81
2022-11-05T20:47:45.563Z,100399.59
2022-11-05T20:50:22.488Z,100399.81
2022-11-05T20:52:58.527Z,100405.22
2022-11-05T20:55:31.761Z,100401.28
2022-11-05T20:58:05.544Z,100402.63
2022-11-05T21:00:41.320Z,100407.16
2022-11-05T21:03:15.100Z,100407.22
2022-11-05T21:05:50.335Z,100412.03
2022-11-05T21:08:25.368Z,100405.44
2022-11-05T21:11:02.646Z,100394.00
2022-11-05T21:13:36.837Z,100396.78
2022-11-05T21:16:18.919Z,100393.38
2022-11-05T21:18:52.538Z,100387.25
2022-11-05T21:21:30.329Z,100388.19
2022-11-05T21:24:03.945Z,100394.53
2022-11-05T21:26:39.764Z,100389.28
2022-11-05T21:29:17.677Z,100387.66
2022-11-05T21:31:51.937Z,100390.44
2022-11-05T21:34:30.333Z,100401.25
2022-11-05T21:37:06.391Z,100398.72
2022-11-05T21:39:40.047Z,100408.59
2022-11-05T21:42:13.812Z,100410.47
2022-11-05T21:44:50.124Z,100410.06
2022-11-05T21:47:23.758Z,100418.69
2022-11-05T21:49:57.148Z,100421.03
2022-11-05T21:52:52.264Z,100421.78
2022-11-05T21:55:42.995Z,100422.09
2022-11-05T21:58:38.889Z,100424.94
2022-11-05T22:01:12.844Z,100426.03
2022-11-05T22:03:49.124Z,100421.69
2022-11-05T22:06:24.496Z,100424.41
2022-11-05T22:09:01.819Z,100435.25
2022-11-05T22:11:40.382Z,100427.38
2022-11-05T22:14:16.226Z,100433.78
2022-11-05T22:16:49.903Z,100429.44
2022-11-05T22:19:26.917Z,100429.50
2022-11-05T22:22:14.646Z,100432.22
2022-11-05T22:24:51.017Z,100430.47
2022-11-05T22:27:27.136Z,100426.09
2022-11-05T22:30:03.734Z,100428.81
2022-11-05T22:32:38.508Z,100429.78
2022-11-05T22:35:12.269Z,100440.56
2022-11-05T22:37:46.802Z,100442.03
2022-11-05T22:40:23.985Z,100443.41
2022-11-05T22:42:58.021Z,100441.88
2022-11-05T22:45:31.307Z,100443.34
2022-11-05T22:48:07.540Z,100451.84
2022-11-05T22:50:41.732Z,100442.16
2022-11-05T22:53:15.277Z,100444.84
2022-11-05T22:55:52.946Z,100441.31
2022-11-05T22:58:26.466Z,100436.84
2022-11-05T23:01:04.048Z,100439.56
2022-11-05T23:03:37.743Z,100442.22
2022-11-05T23:06:32.895Z,100434.16
2022-11-05T23:09:26.164Z,100435.09
2022-11-05T23:12:03.226Z,100435.03
2022-11-05T23:14:37.437Z,100435.03
2022-11-05T23:17:28.629Z,100438.66
2022-11-05T23:20:25.093Z,100440.34
2022-11-05T23:23:16.289Z,100448.41
2022-11-05T23:25:50.251Z,100449.41
2022-11-05T23:28:25.338Z,100449.53
2022-11-05T23:31:15.947Z,100453.19
2022-11-05T23:33:49.429Z,100455.03
2022-11-05T23:36:40.274Z,100456.00
2022-11-05T23:39:14.885Z,100450.69
2022-11-05T23:42:05.468Z,100454.28
2022-11-05T23:45:00.306Z,100450.78
2022-11-05T23:47:50.968Z,100465.97
2022-11-05T23:50:25.038Z,100464.28
2022-11-05T23:53:00.873Z,100466.94
2022-11-05T23:55:34.300Z,100455.50
2022-11-05T23:58:18.492Z,100464.44
